48.7°F
Current conditions from King Hill
Updated every 5 minutes
 
  Tuesday September 16, 2014

Station Historical Data
Daily Summary for June 7, 2012 Units:  English    Metric   Both
« Previous Day
Next Day »
Daily Weekly Monthly Yearly Custom
  High: Low: Average:
Temperature: 73.0 °F 50.0 °F 60.3 °F
Dew Point: 57.2 °F 45.0 °F 50.7 °F
Humidity: 96% 37% 74%
Wind Speed: 6.0mph 0.0mph 2.1mph
Wind Gust: 11.0mph - -
Wind- - WSW
Pressure: 29.95 in 29.84 in -
Precipitation: 0.00 in    
Historical Graphs
 
 
Tabular Data for June 7, 2012
Time Temperature Dew Point Pressure Wind Wind Speed Wind Gust Humidity Daily Rainfall
00:04 50.7 °F 49.0 °F 29.92 in Calm     94% 0.00 in
00:14 50.4 °F 48.7 °F 29.93 in Calm     94% 0.00 in
00:19 50.2 °F 48.5 °F 29.93 in Calm     94% 0.00 in
00:24 50.0 °F 48.3 °F 29.93 in Calm     94% 0.00 in
00:29 50.0 °F 48.3 °F 29.92 in Calm     94% 0.00 in
00:34 50.0 °F 48.6 °F 29.92 in Calm     95% 0.00 in
00:40 50.3 °F 48.9 °F 29.92 in Calm     95% 0.00 in
00:49 50.3 °F 48.9 °F 29.92 in Calm     95% 0.00 in
00:54 50.2 °F 48.8 °F 29.92 in Calm     95% 0.00 in
00:59 50.1 °F 48.7 °F 29.92 in Calm     95% 0.00 in
01:04 50.1 °F 48.7 °F 29.92 in Calm     95% 0.00 in
01:09 50.1 °F 48.7 °F 29.92 in Calm     95% 0.00 in
01:14 50.1 °F 48.7 °F 29.92 in Calm     95% 0.00 in
01:19 50.2 °F 48.8 °F 29.92 in Calm     95% 0.00 in
01:24 50.3 °F 48.9 °F 29.92 in Calm     95% 0.00 in
01:29 50.3 °F 48.9 °F 29.92 in Calm     95% 0.00 in
01:34 50.4 °F 49.0 °F 29.92 in Calm     95% 0.00 in
01:39 50.4 °F 49.0 °F 29.92 in Calm     95% 0.00 in
01:44 50.5 °F 49.1 °F 29.92 in Calm     95% 0.00 in
01:49 50.5 °F 49.1 °F 29.92 in Calm     95% 0.00 in
01:54 50.5 °F 49.1 °F 29.92 in Calm     95% 0.00 in
02:04 50.7 °F 49.3 °F 29.92 in Calm     95% 0.00 in
02:09 50.7 °F 49.3 °F 29.92 in Calm     95% 0.00 in
02:14 50.8 °F 49.4 °F 29.92 in Calm     95% 0.00 in
02:19 50.9 °F 49.8 °F 29.91 in Calm     96% 0.00 in
02:29 50.7 °F 49.3 °F 29.91 in Calm     95% 0.00 in
02:39 50.6 °F 49.2 °F 29.91 in Calm     95% 0.00 in
02:44 50.6 °F 49.2 °F 29.91 in Calm     95% 0.00 in
02:49 50.6 °F 49.2 °F 29.91 in Calm     95% 0.00 in
02:54 50.6 °F 49.2 °F 29.91 in Calm     95% 0.00 in
02:59 50.7 °F 49.3 °F 29.91 in Calm     95% 0.00 in
03:05 50.8 °F 49.4 °F 29.91 in Calm     95% 0.00 in
03:14 51.0 °F 49.9 °F 29.91 in Calm     96% 0.00 in
03:19 51.0 °F 49.9 °F 29.91 in Calm     96% 0.00 in
03:24 50.9 °F 49.8 °F 29.91 in Calm     96% 0.00 in
03:29 50.9 °F 49.8 °F 29.91 in Calm     96% 0.00 in
03:39 50.9 °F 49.8 °F 29.91 in Calm     96% 0.00 in
03:44 50.9 °F 49.8 °F 29.91 in Calm     96% 0.00 in
03:49 50.9 °F 49.8 °F 29.91 in Calm     96% 0.00 in
03:54 50.8 °F 49.7 °F 29.91 in Calm     96% 0.00 in
03:59 50.8 °F 49.7 °F 29.91 in Calm     96% 0.00 in
04:04 50.9 °F 49.8 °F 29.91 in Calm     96% 0.00 in
04:09 50.9 °F 49.8 °F 29.91 in Calm     96% 0.00 in
04:14 50.8 °F 49.7 °F 29.91 in Calm     96% 0.00 in
04:19 50.8 °F 49.7 °F 29.91 in Calm     96% 0.00 in
04:24 50.8 °F 49.7 °F 29.91 in Calm     96% 0.00 in
04:29 50.8 °F 49.7 °F 29.92 in Calm     96% 0.00 in
04:34 50.7 °F 49.6 °F 29.92 in Calm     96% 0.00 in
04:39 50.8 °F 49.7 °F 29.92 in Calm     96% 0.00 in
04:44 50.7 °F 49.6 °F 29.92 in Calm     96% 0.00 in
04:49 50.6 °F 49.5 °F 29.92 in Calm     96% 0.00 in
04:54 50.5 °F 49.4 °F 29.92 in Calm     96% 0.00 in
04:59 50.5 °F 49.4 °F 29.92 in Calm     96% 0.00 in
05:04 50.5 °F 49.4 °F 29.93 in Calm     96% 0.00 in
05:09 50.5 °F 49.4 °F 29.93 in Calm     96% 0.00 in
05:14 50.5 °F 49.4 °F 29.93 in Calm     96% 0.00 in
05:20 50.5 °F 49.4 °F 29.93 in Calm     96% 0.00 in
05:29 50.5 °F 49.4 °F 29.93 in Calm     96% 0.00 in
05:34 50.4 °F 49.3 °F 29.93 in Calm     96% 0.00 in
05:39 50.4 °F 49.3 °F 29.93 in Calm     96% 0.00 in
05:49 50.4 °F 49.3 °F 29.93 in Calm     96% 0.00 in
05:54 50.5 °F 49.4 °F 29.93 in Calm     96% 0.00 in
05:59 50.6 °F 49.5 °F 29.93 in Calm     96% 0.00 in
06:04 50.7 °F 49.6 °F 29.93 in Calm     96% 0.00 in
06:09 50.8 °F 49.7 °F 29.93 in Calm     96% 0.00 in
06:14 51.0 °F 49.9 °F 29.94 in Calm     96% 0.00 in
06:19 51.4 °F 50.3 °F 29.94 in Calm     96% 0.00 in
06:24 51.7 °F 50.6 °F 29.94 in Calm     96% 0.00 in
06:29 52.2 °F 51.1 °F 29.94 in Calm     96% 0.00 in
06:34 52.5 °F 51.4 °F 29.94 in Calm     96% 0.00 in
06:39 52.7 °F 51.6 °F 29.94 in Calm     96% 0.00 in
06:44 53.0 °F 51.9 °F 29.94 in Calm     96% 0.00 in
06:49 53.2 °F 52.1 °F 29.94 in Calm     96% 0.00 in
06:54 53.5 °F 52.4 °F 29.94 in Calm   1.0 mph 96% 0.00 in
06:59 53.7 °F 52.6 °F 29.94 in Calm   1.0 mph 96% 0.00 in
07:04 53.7 °F 52.6 °F 29.94 in Calm     96% 0.00 in
07:09 54.0 °F 52.9 °F 29.94 in Calm     96% 0.00 in
07:14 54.0 °F 52.9 °F 29.94 in Calm     96% 0.00 in
07:19 54.0 °F 52.9 °F 29.94 in Calm     96% 0.00 in
07:24 54.0 °F 52.9 °F 29.94 in Calm     96% 0.00 in
07:29 54.3 °F 53.2 °F 29.94 in Calm     96% 0.00 in
07:39 54.7 °F 53.6 °F 29.94 in Calm     96% 0.00 in
07:45 54.9 °F 53.8 °F 29.94 in Calm     96% 0.00 in
07:54 55.9 °F 54.8 °F 29.94 in Calm     96% 0.00 in
07:59 56.9 °F 55.8 °F 29.94 in Calm     96% 0.00 in
08:04 57.8 °F 56.7 °F 29.94 in Calm     96% 0.00 in
08:09 58.6 °F 57.2 °F 29.94 in Calm     95% 0.00 in
08:14 59.0 °F 56.7 °F 29.94 in Calm     92% 0.00 in
08:19 59.4 °F 55.8 °F 29.94 in Calm     88% 0.00 in
08:24 59.4 °F 55.2 °F 29.94 in Calm     86% 0.00 in
08:29 60.1 °F 56.2 °F 29.94 in Calm     87% 0.00 in
08:39 61.6 °F 56.1 °F 29.94 in Calm     82% 0.00 in
08:44 62.1 °F 56.5 °F 29.94 in Calm     82% 0.00 in
08:49 62.4 °F 56.2 °F 29.94 in Calm     80% 0.00 in
08:54 62.3 °F 55.0 °F 29.94 in Calm   1.0 mph 77% 0.00 in
08:59 62.5 °F 55.2 °F 29.95 in Calm   1.0 mph 77% 0.00 in
09:04 62.6 °F 54.9 °F 29.95 in Calm     76% 0.00 in
09:09 62.8 °F 56.2 °F 29.95 in Calm     79% 0.00 in
09:14 63.2 °F 55.9 °F 29.94 in Calm     77% 0.00 in
09:19 63.6 °F 55.9 °F 29.94 in Calm     76% 0.00 in
09:24 63.6 °F 55.2 °F 29.94 in Calm     74% 0.00 in
09:29 63.8 °F 55.7 °F 29.94 in Calm     75% 0.00 in
09:34 64.5 °F 55.3 °F 29.94 in Calm     72% 0.00 in
09:39 65.0 °F 55.8 °F 29.94 in Calm     72% 0.00 in
09:44 65.4 °F 55.4 °F 29.94 in Calm     70% 0.00 in
09:49 65.8 °F 55.8 °F 29.94 in Calm     70% 0.00 in
09:54 66.0 °F 55.1 °F 29.94 in Calm     68% 0.00 in
09:59 65.4 °F 54.2 °F 29.94 in Calm     67% 0.00 in
10:04 64.9 °F 53.7 °F 29.94 in Calm     67% 0.00 in
10:09 64.9 °F 54.5 °F 29.94 in Calm     69% 0.00 in
10:14 64.7 °F 53.9 °F 29.93 in Calm     68% 0.00 in
10:19 65.0 °F 55.0 °F 29.93 in Calm     70% 0.00 in
10:24 65.6 °F 53.9 °F 29.93 in WNW 1.0 mph 4.0 mph 66% 0.00 in
10:29 65.5 °F 53.9 °F 29.93 in Calm   6.0 mph 66% 0.00 in
10:34 65.9 °F 53.4 °F 29.93 in NW 5.0 mph 9.0 mph 64% 0.00 in
10:39 64.6 °F 52.6 °F 29.93 in WNW 2.0 mph 9.0 mph 65% 0.00 in
10:44 64.7 °F 52.3 °F 29.93 in NW 6.0 mph 11.0 mph 64% 0.00 in
10:49 64.9 °F 53.7 °F 29.93 in West 1.0 mph 11.0 mph 67% 0.00 in
10:54 65.4 °F 56.5 °F 29.93 in Calm   7.0 mph 73% 0.00 in
10:59 65.8 °F 55.0 °F 29.93 in WNW 1.0 mph 4.0 mph 68% 0.00 in
11:04 65.2 °F 54.8 °F 29.93 in Calm   8.0 mph 69% 0.00 in
11:09 64.5 °F 53.3 °F 29.93 in Calm   8.0 mph 67% 0.00 in
11:14 65.2 °F 54.0 °F 29.92 in Calm   1.0 mph 67% 0.00 in
11:19 66.3 °F 55.4 °F 29.92 in NW 2.0 mph 7.0 mph 68% 0.00 in
11:24 66.7 °F 53.7 °F 29.92 in NW 1.0 mph 9.0 mph 63% 0.00 in
11:29 65.8 °F 53.3 °F 29.92 in WNW 5.0 mph 9.0 mph 64% 0.00 in
11:34 66.2 °F 55.3 °F 29.92 in NW 2.0 mph 9.0 mph 68% 0.00 in
11:39 66.3 °F 53.3 °F 29.92 in Calm   6.0 mph 63% 0.00 in
11:44 65.6 °F 50.9 °F 29.92 in NNE 1.0 mph 6.0 mph 59% 0.00 in
11:49 65.1 °F 51.3 °F 29.92 in Calm   5.0 mph 61% 0.00 in
11:54 64.8 °F 52.8 °F 29.92 in Calm     65% 0.00 in
11:59 65.6 °F 51.8 °F 29.92 in Calm   6.0 mph 61% 0.00 in
12:04 66.7 °F 54.1 °F 29.92 in NW 3.0 mph 7.0 mph 64% 0.00 in
12:09 66.5 °F 51.7 °F 29.92 in WNW 3.0 mph 9.0 mph 59% 0.00 in
12:14 66.1 °F 52.7 °F 29.92 in WNW 1.0 mph 9.0 mph 62% 0.00 in
12:19 66.8 °F 52.5 °F 29.92 in Calm   7.0 mph 60% 0.00 in
12:24 67.8 °F 54.3 °F 29.92 in Calm   4.0 mph 62% 0.00 in
12:29 68.4 °F 52.1 °F 29.92 in Calm   5.0 mph 56% 0.00 in
12:34 68.2 °F 51.9 °F 29.91 in Calm   5.0 mph 56% 0.00 in
12:39 67.5 °F 51.7 °F 29.91 in Calm   1.0 mph 57% 0.00 in
12:44 66.5 °F 53.1 °F 29.92 in Calm   1.0 mph 62% 0.00 in
12:49 65.7 °F 52.8 °F 29.91 in Calm   1.0 mph 63% 0.00 in
12:54 66.4 °F 54.7 °F 29.91 in Calm   3.0 mph 66% 0.00 in
12:59 67.9 °F 54.4 °F 29.91 in Calm   4.0 mph 62% 0.00 in
13:04 69.0 °F 55.5 °F 29.91 in Calm   4.0 mph 62% 0.00 in
13:09 69.4 °F 54.0 °F 29.91 in Calm   6.0 mph 58% 0.00 in
13:14 69.9 °F 54.5 °F 29.90 in Calm   6.0 mph 58% 0.00 in
13:19 70.2 °F 55.2 °F 29.90 in NW 2.0 mph 7.0 mph 59% 0.00 in
13:24 69.8 °F 53.4 °F 29.90 in Calm   7.0 mph 56% 0.00 in
13:29 69.4 °F 52.6 °F 29.90 in ENE 1.0 mph 7.0 mph 55% 0.00 in
13:34 69.5 °F 52.6 °F 29.90 in Calm   7.0 mph 55% 0.00 in
13:39 69.9 °F 55.4 °F 29.90 in Calm   5.0 mph 60% 0.00 in
13:44 70.7 °F 56.2 °F 29.90 in Calm   5.0 mph 60% 0.00 in
13:49 70.6 °F 52.7 °F 29.90 in Calm   4.0 mph 53% 0.00 in
13:54 70.5 °F 54.6 °F 29.90 in Calm   4.0 mph 57% 0.00 in
13:59 70.6 °F 52.7 °F 29.89 in Calm   7.0 mph 53% 0.00 in
14:04 70.7 °F 51.7 °F 29.89 in Calm   7.0 mph 51% 0.00 in
14:09 71.1 °F 51.5 °F 29.89 in WNW 2.0 mph 7.0 mph 50% 0.00 in
14:14 71.0 °F 55.5 °F 29.89 in Calm   7.0 mph 58% 0.00 in
14:19 71.5 °F 56.0 °F 29.89 in Calm   4.0 mph 58% 0.00 in
14:34 71.0 °F 53.0 °F 29.89 in NE 1.0 mph 6.0 mph 53% 0.00 in
14:44 70.8 °F 53.9 °F 29.88 in Calm   6.0 mph 55% 0.00 in
14:49 71.3 °F 55.8 °F 29.88 in Calm   4.0 mph 58% 0.00 in
14:54 71.7 °F 51.5 °F 29.88 in Calm     49% 0.00 in
14:59 72.2 °F 51.4 °F 29.88 in Calm   1.0 mph 48% 0.00 in
15:04 72.2 °F 54.1 °F 29.88 in WNW 3.0 mph 8.0 mph 53% 0.00 in
15:09 72.1 °F 51.9 °F 29.88 in Calm   8.0 mph 49% 0.00 in
15:14 72.2 °F 50.9 °F 29.88 in NNW 1.0 mph 5.0 mph 47% 0.00 in
15:19 72.0 °F 48.9 °F 29.88 in NNE 1.0 mph 9.0 mph 44% 0.00 in
15:24 72.4 °F 52.2 °F 29.88 in Calm   9.0 mph 49% 0.00 in
15:29 72.7 °F 54.1 °F 29.87 in Calm   1.0 mph 52% 0.00 in
15:39 71.3 °F 51.2 °F 29.87 in Calm   9.0 mph 49% 0.00 in
15:44 71.3 °F 48.9 °F 29.87 in Calm   8.0 mph 45% 0.00 in
15:49 71.6 °F 52.0 °F 29.87 in Calm   8.0 mph 50% 0.00 in
15:54 71.8 °F 50.5 °F 29.87 in Calm   4.0 mph 47% 0.00 in
15:59 71.5 °F 48.5 °F 29.87 in Calm   2.0 mph 44% 0.00 in
16:04 72.0 °F 51.8 °F 29.87 in Calm   2.0 mph 49% 0.00 in
16:09 72.4 °F 53.3 °F 29.87 in Calm   1.0 mph 51% 0.00 in
16:14 72.8 °F 53.1 °F 29.87 in NW 1.0 mph 6.0 mph 50% 0.00 in
16:19 72.7 °F 51.9 °F 29.86 in WNW 5.0 mph 9.0 mph 48% 0.00 in
16:24 72.4 °F 52.2 °F 29.86 in NW 2.0 mph 9.0 mph 49% 0.00 in
16:29 72.0 °F 52.9 °F 29.86 in West 2.0 mph 10.0 mph 51% 0.00 in
16:34 72.3 °F 51.0 °F 29.86 in Calm   10.0 mph 47% 0.00 in
16:39 72.0 °F 50.7 °F 29.87 in Calm   4.0 mph 47% 0.00 in
16:44 72.0 °F 49.5 °F 29.86 in Calm   4.0 mph 45% 0.00 in
16:49 72.2 °F 49.7 °F 29.86 in Calm   1.0 mph 45% 0.00 in
16:54 72.2 °F 52.5 °F 29.86 in Calm   5.0 mph 50% 0.00 in
16:59 72.4 °F 50.5 °F 29.86 in Calm   5.0 mph 46% 0.00 in
17:09 72.5 °F 48.8 °F 29.86 in Calm   3.0 mph 43% 0.00 in
17:14 72.5 °F 48.8 °F 29.86 in Calm   3.0 mph 43% 0.00 in
17:19 72.6 °F 45.6 °F 29.85 in Calm     38% 0.00 in
17:24 72.4 °F 45.4 °F 29.85 in NNE 1.0 mph 5.0 mph 38% 0.00 in
17:29 72.5 °F 46.2 °F 29.85 in Calm   5.0 mph 39% 0.00 in
17:34 72.8 °F 46.4 °F 29.85 in Calm   2.0 mph 39% 0.00 in
17:39 73.0 °F 49.8 °F 29.85 in Calm   1.0 mph 44% 0.00 in
17:44 73.0 °F 51.6 °F 29.85 in Calm   1.0 mph 47% 0.00 in
17:49 72.9 °F 48.5 °F 29.85 in Calm   1.0 mph 42% 0.00 in
17:54 73.0 °F 47.9 °F 29.84 in Calm     41% 0.00 in
17:59 73.0 °F 47.3 °F 29.84 in Calm   1.0 mph 40% 0.00 in
18:04 72.8 °F 45.0 °F 29.84 in Calm   1.0 mph 37% 0.00 in
18:09 72.8 °F 46.4 °F 29.84 in Calm     39% 0.00 in
18:14 72.8 °F 46.4 °F 29.84 in North 1.0 mph 4.0 mph 39% 0.00 in
18:19 72.7 °F 46.3 °F 29.84 in Calm   4.0 mph 39% 0.00 in
18:24 72.5 °F 46.2 °F 29.84 in Calm   3.0 mph 39% 0.00 in
18:29 72.5 °F 47.5 °F 29.85 in Calm   3.0 mph 41% 0.00 in
18:34 72.8 °F 47.8 °F 29.85 in Calm     41% 0.00 in
18:39 72.6 °F 46.9 °F 29.85 in Calm     40% 0.00 in
18:44 72.2 °F 48.5 °F 29.85 in Calm     43% 0.00 in
18:49 71.6 °F 50.9 °F 29.85 in Calm     48% 0.00 in
18:54 71.2 °F 48.8 °F 29.85 in Calm     45% 0.00 in
18:59 71.1 °F 48.1 °F 29.85 in Calm     44% 0.00 in
19:04 70.2 °F 47.9 °F 29.85 in Calm     45% 0.00 in
19:09 69.5 °F 49.0 °F 29.85 in Calm     48% 0.00 in
19:14 68.6 °F 51.3 °F 29.85 in Calm     54% 0.00 in
19:19 67.6 °F 52.8 °F 29.85 in Calm     59% 0.00 in
19:24 66.4 °F 51.2 °F 29.85 in Calm     58% 0.00 in
19:29 65.6 °F 52.2 °F 29.85 in Calm     62% 0.00 in
19:34 64.9 °F 52.0 °F 29.85 in Calm     63% 0.00 in
19:39 64.0 °F 52.4 °F 29.85 in Calm     66% 0.00 in
19:44 63.3 °F 51.8 °F 29.85 in Calm     66% 0.00 in
19:49 62.6 °F 51.9 °F 29.85 in Calm     68% 0.00 in
19:54 61.9 °F 51.6 °F 29.85 in Calm     69% 0.00 in
19:59 61.2 °F 51.7 °F 29.85 in Calm     71% 0.00 in
20:04 60.4 °F 51.7 °F 29.85 in Calm     73% 0.00 in
20:09 59.6 °F 51.3 °F 29.85 in Calm     74% 0.00 in
20:14 59.0 °F 50.7 °F 29.85 in Calm     74% 0.00 in
20:19 58.5 °F 51.0 °F 29.85 in Calm     76% 0.00 in
20:24 57.9 °F 50.4 °F 29.85 in Calm     76% 0.00 in
20:29 57.2 °F 49.7 °F 29.85 in Calm     76% 0.00 in
20:34 56.5 °F 49.7 °F 29.85 in Calm     78% 0.00 in
20:39 55.7 °F 48.3 °F 29.86 in Calm     76% 0.00 in
20:44 55.1 °F 48.0 °F 29.85 in Calm     77% 0.00 in
20:49 54.5 °F 47.8 °F 29.86 in Calm     78% 0.00 in
20:54 54.1 °F 47.4 °F 29.86 in Calm     78% 0.00 in
20:59 53.6 °F 47.3 °F 29.86 in Calm     79% 0.00 in
21:04 53.3 °F 47.3 °F 29.86 in Calm     80% 0.00 in
21:09 53.0 °F 47.3 °F 29.86 in Calm     81% 0.00 in
21:14 52.7 °F 47.4 °F 29.86 in Calm     82% 0.00 in
21:19 52.6 °F 47.3 °F 29.86 in Calm     82% 0.00 in
21:24 52.7 °F 47.0 °F 29.86 in Calm     81% 0.00 in
21:29 52.9 °F 47.2 °F 29.86 in Calm     81% 0.00 in
21:34 53.0 °F 47.0 °F 29.86 in Calm     80% 0.00 in
21:39 52.9 °F 47.2 °F 29.86 in Calm     81% 0.00 in
21:44 52.7 °F 46.4 °F 29.86 in Calm     79% 0.00 in
21:49 52.8 °F 46.1 °F 29.87 in Calm     78% 0.00 in
21:54 52.7 °F 46.4 °F 29.87 in Calm     79% 0.00 in
21:59 52.4 °F 46.1 °F 29.86 in Calm     79% 0.00 in
22:04 52.3 °F 46.0 °F 29.86 in Calm     79% 0.00 in
22:09 52.4 °F 45.7 °F 29.86 in Calm     78% 0.00 in
22:14 52.4 °F 46.1 °F 29.86 in Calm     79% 0.00 in
22:19 52.2 °F 46.6 °F 29.86 in Calm     81% 0.00 in
22:24 51.8 °F 46.2 °F 29.86 in Calm     81% 0.00 in
22:29 51.7 °F 45.7 °F 29.86 in Calm   2.0 mph 80% 0.00 in
22:34 52.1 °F 45.8 °F 29.86 in Calm   2.0 mph 79% 0.00 in
22:39 52.6 °F 45.9 °F 29.86 in Calm   2.0 mph 78% 0.00 in
22:44 52.9 °F 46.2 °F 29.86 in Calm   2.0 mph 78% 0.00 in
22:49 53.0 °F 46.3 °F 29.86 in Calm   1.0 mph 78% 0.00 in
22:54 52.9 °F 46.6 °F 29.86 in Calm     79% 0.00 in
22:59 52.7 °F 46.4 °F 29.86 in Calm     79% 0.00 in
23:04 52.5 °F 46.2 °F 29.86 in Calm   1.0 mph 79% 0.00 in
23:09 52.3 °F 46.3 °F 29.86 in Calm   1.0 mph 80% 0.00 in
23:14 52.1 °F 46.1 °F 29.86 in Calm     80% 0.00 in
23:19 51.8 °F 45.8 °F 29.86 in Calm   3.0 mph 80% 0.00 in
23:24 51.8 °F 45.8 °F 29.86 in Calm   4.0 mph 80% 0.00 in
23:29 51.7 °F 45.7 °F 29.86 in Calm   4.0 mph 80% 0.00 in
23:34 51.7 °F 45.4 °F 29.85 in Calm   2.0 mph 79% 0.00 in
23:39 51.9 °F 45.6 °F 29.85 in SW 1.0 mph 3.0 mph 79% 0.00 in
23:44 52.1 °F 45.8 °F 29.85 in Calm   3.0 mph 79% 0.00 in
23:49 52.2 °F 45.6 °F 29.85 in Calm   3.0 mph 78% 0.00 in
23:54 52.3 °F 45.7 °F 29.85 in Calm   3.0 mph 78% 0.00 in
23:59 52.4 °F 45.7 °F 29.85 in Calm   4.0 mph 78% 0.00 in
Westford Weather
Compliments of Weather Underground

 
 
Current Radar Loop:

Copyright © WestfordWeather.net 2007-2014. All rights reserved.